Time;durP1;ratioP1;P1;durP2;ratioP2;P2;SDS_P1;SDS_P2;PMS_P1;PMS_P2;Temp;Humidity;BMP_temperature;BMP_pressure;BME280_temperature;BME280_humidity;BME280_pressure;Samples;Min_cycle;Max_cycle;Signal;HPM_P1;HPM_P2
2023/07/23 00:02:18;;;;;;;14.90;5.47;;;;;;;23.10;100.00;97420.63;5057622;28;20086;-74
2023/07/23 00:04:43;;;;;;;10.50;5.32;;;;;;;23.11;100.00;97422.31;5070152;28;20025;-74
2023/07/23 00:07:09;;;;;;;14.80;5.25;;;;;;;23.09;100.00;97425.22;5047667;28;20115;-74
2023/07/23 00:09:34;;;;;;;15.25;5.50;;;;;;;23.16;100.00;97428.09;5059865;28;20031;-74
2023/07/23 00:12:00;;;;;;;11.57;5.40;;;;;;;23.15;100.00;97424.53;5036368;28;20109;-73
2023/07/23 00:14:26;;;;;;;13.82;5.35;;;;;;;23.21;100.00;97428.41;5054257;28;20028;-73
2023/07/23 00:16:58;;;;;;;11.00;5.35;;;;;;;23.15;100.00;97420.94;5069843;28;20016;-73
2023/07/23 00:19:23;;;;;;;13.15;5.13;;;;;;;23.20;100.00;97427.56;5062398;28;20021;-73
2023/07/23 00:21:49;;;;;;;11.35;5.22;;;;;;;23.23;100.00;97421.75;5050162;28;20227;-74
2023/07/23 00:24:17;;;;;;;10.35;5.57;;;;;;;23.18;100.00;97410.53;5051329;28;20037;-74
2023/07/23 00:26:42;;;;;;;15.85;5.50;;;;;;;23.23;100.00;97409.97;5053193;28;20032;-75
2023/07/23 00:29:08;;;;;;;13.57;6.00;;;;;;;23.29;100.00;97419.38;5057444;28;20504;-74
2023/07/23 00:31:33;;;;;;;17.10;5.95;;;;;;;23.30;100.00;97418.31;5061500;28;20521;-73
2023/07/23 00:33:59;;;;;;;12.40;5.75;;;;;;;23.32;100.00;97440.84;5065770;28;20028;-73
2023/07/23 00:36:24;;;;;;;9.55;5.07;;;;;;;23.28;100.00;97439.50;5052871;28;20057;-73
2023/07/23 00:38:50;;;;;;;15.48;5.18;;;;;;;23.19;100.00;97434.03;5066378;28;20067;-74
2023/07/23 00:41:15;;;;;;;15.38;6.13;;;;;;;23.17;100.00;97432.53;5052970;28;20023;-74
2023/07/23 00:43:41;;;;;;;9.32;5.13;;;;;;;23.09;100.00;97424.38;5056669;28;20552;-74
2023/07/23 00:46:08;;;;;;;12.25;5.13;;;;;;;23.14;100.00;97433.72;5059524;28;20032;-74
2023/07/23 00:48:34;;;;;;;12.27;5.38;;;;;;;23.10;100.00;97434.28;5049687;28;20044;-72
2023/07/23 00:50:59;;;;;;;12.77;5.25;;;;;;;23.00;100.00;97414.50;5053587;28;20029;-74
2023/07/23 00:53:25;;;;;;;10.27;5.95;;;;;;;22.95;100.00;97430.56;5048768;28;20020;-74
2023/07/23 00:55:52;;;;;;;10.77;5.38;;;;;;;22.93;100.00;97430.72;5057730;28;20021;-74
2023/07/23 00:58:18;;;;;;;17.35;6.32;;;;;;;22.92;100.00;97429.00;5054198;28;20029;-74
2023/07/23 01:00:44;;;;;;;10.63;5.25;;;;;;;22.90;100.00;97430.22;5052423;28;20021;-74
2023/07/23 01:03:09;;;;;;;9.80;5.88;;;;;;;22.89;100.00;97450.34;5053358;28;20021;-74
2023/07/23 01:05:36;;;;;;;12.55;5.95;;;;;;;22.90;100.00;97512.06;5034571;28;20028;-74
2023/07/23 01:08:03;;;;;;;16.88;6.05;;;;;;;22.87;100.00;97565.09;5056219;28;21068;-74
2023/07/23 01:10:31;;;;;;;25.48;6.60;;;;;;;22.78;100.00;97571.59;5064130;28;20096;-75
2023/07/23 01:12:57;;;;;;;18.70;6.10;;;;;;;22.81;100.00;97595.81;5049077;28;20040;-74
2023/07/23 01:15:22;;;;;;;15.98;6.05;;;;;;;22.86;100.00;97582.50;5050151;28;20380;-74
2023/07/23 01:17:50;;;;;;;16.83;6.30;;;;;;;23.13;100.00;97624.97;5056219;28;20033;-74
2023/07/23 01:20:16;;;;;;;16.45;6.97;;;;;;;23.16;100.00;97622.72;5057368;28;20032;-74
2023/07/23 01:22:41;;;;;;;14.13;6.53;;;;;;;23.18;100.00;97628.88;5060704;28;20051;-75
2023/07/23 01:25:07;;;;;;;11.25;6.75;;;;;;;23.20;100.00;97623.25;5055088;28;20136;-74
2023/07/23 01:27:32;;;;;;;13.38;7.80;;;;;;;23.25;100.00;97623.59;5050285;28;20033;-74
2023/07/23 01:29:58;;;;;;;13.40;7.72;;;;;;;23.22;100.00;97610.28;5040667;28;20017;-74
2023/07/23 01:32:23;;;;;;;13.68;7.70;;;;;;;23.21;100.00;97620.34;5065511;28;20047;-74
2023/07/23 01:34:49;;;;;;;16.25;8.48;;;;;;;23.25;100.00;97630.94;5054050;28;20017;-74
2023/07/23 01:37:15;;;;;;;21.23;9.40;;;;;;;23.18;100.00;97625.31;5056272;28;20028;-74
2023/07/23 01:39:42;;;;;;;13.43;8.93;;;;;;;23.22;100.00;97627.50;5052187;28;20029;-74
2023/07/23 01:42:09;;;;;;;18.13;8.82;;;;;;;23.20;100.00;97626.81;5043890;28;20116;-75
2023/07/23 01:44:35;;;;;;;16.45;9.18;;;;;;;23.24;100.00;97621.88;5058824;28;20024;-73
2023/07/23 01:47:00;;;;;;;15.43;9.05;;;;;;;23.19;100.00;97616.09;5048938;28;20490;-73
2023/07/23 01:49:26;;;;;;;14.30;9.55;;;;;;;23.14;100.00;97619.34;5048907;28;20047;-74
2023/07/23 01:51:51;;;;;;;19.00;9.60;;;;;;;23.14;100.00;97616.59;5054210;28;20037;-73
2023/07/23 01:54:17;;;;;;;15.30;9.10;;;;;;;23.11;100.00;97614.22;5055706;28;20457;-74
2023/07/23 01:56:42;;;;;;;13.48;9.30;;;;;;;23.14;100.00;97624.78;5065864;28;20085;-73
2023/07/23 01:59:08;;;;;;;16.60;9.90;;;;;;;23.14;100.00;97623.94;5065889;28;20024;-73
2023/07/23 02:01:34;;;;;;;20.92;9.05;;;;;;;23.07;100.00;97623.75;5068307;28;20028;-75
2023/07/23 02:04:00;;;;;;;17.45;9.05;;;;;;;23.03;100.00;97619.69;5036083;28;20021;-73
2023/07/23 02:06:25;;;;;;;16.92;9.45;;;;;;;22.92;100.00;97609.09;5048242;28;20036;-74
2023/07/23 02:08:51;;;;;;;15.00;9.15;;;;;;;22.86;100.00;97612.50;5048459;28;20033;-74
2023/07/23 02:11:16;;;;;;;17.20;8.75;;;;;;;22.82;100.00;97613.88;5049966;28;20024;-74
2023/07/23 02:13:42;;;;;;;15.40;8.38;;;;;;;22.80;100.00;97610.47;5032020;28;20391;-74
2023/07/23 02:16:15;;;;;;;16.73;9.27;;;;;;;22.74;100.00;97599.38;5051463;28;20032;-74
2023/07/23 02:18:41;;;;;;;18.38;9.02;;;;;;;22.74;100.00;97605.69;5050860;28;20031;-74
2023/07/23 02:21:06;;;;;;;19.73;9.32;;;;;;;22.68;100.00;97600.91;5068179;28;20043;-74
2023/07/23 02:23:32;;;;;;;17.52;9.30;;;;;;;22.64;100.00;97594.06;5058388;28;20541;-74
2023/07/23 02:25:57;;;;;;;17.77;11.00;;;;;;;22.71;100.00;97589.66;5056776;28;20024;-74
2023/07/23 02:28:23;;;;;;;20.67;12.60;;;;;;;22.74;100.00;97592.03;5059617;28;20109;-74
2023/07/23 02:30:56;;;;;;;18.90;9.60;;;;;;;22.80;100.00;97588.63;5057812;28;20464;-74
2023/07/23 02:33:21;;;;;;;15.13;9.43;;;;;;;22.79;100.00;97581.50;5035348;28;20048;-74
2023/07/23 02:35:47;;;;;;;17.38;9.55;;;;;;;22.87;100.00;97583.34;5062802;28;20074;-74
2023/07/23 02:38:12;;;;;;;13.52;9.30;;;;;;;22.83;100.00;97573.78;5061478;28;20119;-74
2023/07/23 02:40:38;;;;;;;14.48;9.48;;;;;;;22.81;100.00;97573.97;5035107;28;20028;-74
2023/07/23 02:43:03;;;;;;;24.67;10.13;;;;;;;22.80;100.00;97566.81;5051935;28;20025;-74
2023/07/23 02:45:29;;;;;;;15.00;9.45;;;;;;;22.79;100.00;97570.59;5058801;28;20100;-75
2023/07/23 02:47:55;;;;;;;13.48;9.13;;;;;;;22.75;100.00;97566.47;5053356;28;20100;-75
2023/07/23 02:50:20;;;;;;;16.33;9.63;;;;;;;22.65;100.00;97558.47;5067749;28;20539;-75
2023/07/23 02:52:46;;;;;;;17.73;8.80;;;;;;;22.51;100.00;97552.81;5068394;28;20020;-75
2023/07/23 02:55:11;;;;;;;14.95;9.23;;;;;;;22.40;100.00;97556.69;5055598;28;20029;-75
2023/07/23 02:57:37;;;;;;;17.90;9.40;;;;;;;22.39;100.00;97571.38;5060312;28;20032;-75
2023/07/23 03:00:03;;;;;;;15.13;10.35;;;;;;;22.37;100.00;97570.66;5064473;28;20020;-75
2023/07/23 03:02:29;;;;;;;20.10;9.85;;;;;;;22.32;100.00;97577.66;5059879;28;20484;-75
2023/07/23 03:04:55;;;;;;;15.18;9.27;;;;;;;22.32;100.00;97583.94;5051017;28;20031;-75
2023/07/23 03:07:20;;;;;;;22.33;10.43;;;;;;;22.35;100.00;97588.22;5052535;28;20024;-75
2023/07/23 03:09:46;;;;;;;17.35;8.90;;;;;;;22.38;100.00;97582.44;5060985;28;20021;-75
2023/07/23 03:12:11;;;;;;;16.48;9.65;;;;;;;22.40;100.00;97583.97;5041802;28;20028;-75
2023/07/23 03:14:37;;;;;;;21.75;9.68;;;;;;;22.45;100.00;97595.22;5064082;28;20021;-75
2023/07/23 03:17:03;;;;;;;21.65;10.45;;;;;;;22.44;100.00;97579.88;5068435;28;20490;-75
2023/07/23 03:19:28;;;;;;;13.82;8.65;;;;;;;22.45;100.00;97586.19;5070012;28;20060;-75
2023/07/23 03:21:54;;;;;;;24.90;9.50;;;;;;;22.43;100.00;97585.50;5042488;28;20025;-75
2023/07/23 03:24:19;;;;;;;23.63;9.70;;;;;;;22.42;100.00;97578.34;5062962;28;20089;-75
2023/07/23 03:26:45;;;;;;;18.20;9.52;;;;;;;22.42;100.00;97584.66;5052042;28;20025;-74
2023/07/23 03:29:10;;;;;;;17.13;8.60;;;;;;;22.49;100.00;97591.13;5067600;28;20025;-74
2023/07/23 03:31:36;;;;;;;18.35;8.70;;;;;;;22.49;100.00;97593.84;5061882;28;20041;-75
2023/07/23 03:34:01;;;;;;;17.38;9.57;;;;;;;22.52;100.00;97587.22;5063074;28;20032;-75
2023/07/23 03:36:27;;;;;;;20.40;8.15;;;;;;;22.58;100.00;97589.25;5057693;28;20021;-75
2023/07/23 03:38:53;;;;;;;22.48;8.57;;;;;;;22.54;100.00;97594.22;5050456;28;20024;-75
2023/07/23 03:41:18;;;;;;;18.95;9.65;;;;;;;22.56;100.00;97594.91;5059705;28;20025;-75
2023/07/23 03:43:44;;;;;;;17.70;9.68;;;;;;;22.53;100.00;97583.47;5040645;28;20032;-74
2023/07/23 03:46:09;;;;;;;16.00;8.85;;;;;;;22.49;100.00;97587.53;5070503;28;20086;-74
2023/07/23 03:48:35;;;;;;;16.83;9.18;;;;;;;22.46;100.00;97579.69;5060923;28;20017;-74
2023/07/23 03:51:00;;;;;;;14.73;9.90;;;;;;;22.50;100.00;97595.56;5066417;28;20021;-75
2023/07/23 03:53:26;;;;;;;20.38;9.93;;;;;;;22.48;100.00;97585.84;5058866;28;20063;-75
2023/07/23 03:55:51;;;;;;;15.77;9.38;;;;;;;22.49;100.00;97591.13;5066223;28;20088;-75
2023/07/23 03:58:17;;;;;;;21.38;9.95;;;;;;;22.60;100.00;97598.16;5060223;28;20472;-74
2023/07/23 04:00:42;;;;;;;26.30;11.13;;;;;;;22.52;100.00;97598.13;5050205;28;20082;-74
2023/07/23 04:03:08;;;;;;;18.92;11.02;;;;;;;22.59;100.00;97604.59;5051500;28;20032;-73
2023/07/23 04:05:33;;;;;;;18.45;10.23;;;;;;;22.61;100.00;97605.31;5050255;28;20024;-74
2023/07/23 04:07:59;;;;;;;18.05;10.48;;;;;;;22.65;100.00;97603.97;5033873;28;20443;-74
2023/07/23 04:10:24;;;;;;;18.33;10.05;;;;;;;22.74;100.00;97594.75;5051327;28;20087;-75
2023/07/23 04:12:50;;;;;;;26.45;11.23;;;;;;;22.84;100.00;97594.59;5050377;28;20477;-75
2023/07/23 04:15:15;;;;;;;19.05;10.38;;;;;;;22.83;100.00;97592.88;5051340;28;20029;-75
2023/07/23 04:17:41;;;;;;;37.63;22.85;;;;;;;22.73;100.00;97586.78;5033358;28;20480;-75
2023/07/23 04:20:07;;;;;;;23.48;11.57;;;;;;;22.78;100.00;97598.00;5033322;28;20123;-75
2023/07/23 04:22:32;;;;;;;19.75;12.38;;;;;;;22.90;100.00;97592.06;5049756;28;20029;-75
2023/07/23 04:24:58;;;;;;;24.98;10.55;;;;;;;22.92;100.00;97592.72;5033510;28;20040;-75
2023/07/23 04:27:23;;;;;;;36.20;22.95;;;;;;;23.03;100.00;97595.13;5033221;28;20036;-75
2023/07/23 04:29:49;;;;;;;19.85;11.38;;;;;;;23.14;100.00;97599.38;5051304;28;20481;-75
2023/07/23 04:32:14;;;;;;;46.45;27.52;;;;;;;23.22;100.00;97589.28;5049481;28;20044;-75
2023/07/23 04:34:40;;;;;;;15.27;9.93;;;;;;;23.27;100.00;97590.66;5032886;28;20392;-75
2023/07/23 04:37:07;;;;;;;17.83;8.98;;;;;;;23.25;100.00;97590.84;5049684;28;20032;-74
2023/07/23 04:39:33;;;;;;;20.15;14.13;;;;;;;23.49;100.00;97589.97;5049452;28;20043;-73
2023/07/23 04:41:59;;;;;;;45.70;25.08;;;;;;;24.13;100.00;97595.22;5033121;28;20340;-74
2023/07/23 04:44:24;;;;;;;16.65;9.35;;;;;;;24.38;100.00;97592.34;5032797;28;20029;-73
2023/07/23 04:46:50;;;;;;;18.35;8.77;;;;;;;24.27;100.00;97588.97;5049079;28;20036;-74
2023/07/23 04:49:15;;;;;;;20.70;9.60;;;;;;;24.13;100.00;97588.91;5032777;28;20032;-74
2023/07/23 04:51:41;;;;;;;20.63;10.30;;;;;;;24.08;100.00;97589.41;5050710;28;20029;-74
2023/07/23 04:54:06;;;;;;;13.32;9.25;;;;;;;24.15;100.00;97593.16;5049180;28;20124;-74
2023/07/23 04:56:32;;;;;;;16.63;9.15;;;;;;;24.11;100.00;97594.56;5050627;28;20020;-74
2023/07/23 04:58:58;;;;;;;102.78;64.88;;;;;;;24.21;100.00;97589.69;5049209;28;20108;-74
2023/07/23 05:01:24;;;;;;;20.73;10.40;;;;;;;24.34;100.00;97586.38;5049306;28;20032;-75
2023/07/23 05:03:49;;;;;;;19.52;12.32;;;;;;;24.38;100.00;97589.63;5049266;28;20031;-75
2023/07/23 05:06:15;;;;;;;13.18;8.98;;;;;;;24.64;100.00;97595.63;5050621;28;20424;-74
2023/07/23 05:08:40;;;;;;;17.08;8.40;;;;;;;24.98;100.00;97592.47;5049079;28;20020;-75
2023/07/23 05:11:06;;;;;;;22.65;13.35;;;;;;;25.18;100.00;97580.81;5050347;28;20028;-75
2023/07/23 05:13:35;;;;;;;17.30;9.40;;;;;;;25.16;100.00;97588.34;5049024;28;20396;-74
2023/07/23 05:16:02;;;;;;;15.02;9.48;;;;;;;25.18;100.00;97586.28;5050064;28;20031;-76
2023/07/23 05:18:28;;;;;;;18.35;9.75;;;;;;;25.22;100.00;97592.25;5049134;28;20083;-75
2023/07/23 05:20:54;;;;;;;14.77;9.25;;;;;;;25.46;100.00;97588.41;5049061;28;20099;-74
2023/07/23 05:23:20;;;;;;;16.08;9.50;;;;;;;25.71;100.00;97587.16;5065689;28;20472;-75
2023/07/23 05:25:45;;;;;;;19.45;10.13;;;;;;;26.28;100.00;97585.41;5068866;28;20536;-76
2023/07/23 05:28:11;;;;;;;18.58;11.40;;;;;;;27.20;100.00;97580.91;5069101;28;20071;-74
2023/07/23 05:30:37;;;;;;;14.20;8.30;;;;;;;28.42;100.00;97587.66;5070032;28;20025;-75
2023/07/23 05:33:03;;;;;;;14.25;8.13;;;;;;;29.27;100.00;97587.88;5052031;28;20436;-74
2023/07/23 05:35:28;;;;;;;18.42;8.77;;;;;;;30.16;100.00;97579.94;5070302;28;20024;-74
2023/07/23 05:37:54;;;;;;;17.23;9.35;;;;;;;30.77;100.00;97579.44;5068751;28;20056;-74
2023/07/23 05:40:20;;;;;;;18.55;8.73;;;;;;;31.11;100.00;97581.81;5068963;28;20487;-73
2023/07/23 05:42:46;;;;;;;13.57;8.90;;;;;;;31.22;100.00;97583.88;5068510;28;20551;-74
2023/07/23 05:45:11;;;;;;;13.45;8.13;;;;;;;31.77;100.00;97586.81;5070081;28;20111;-74
2023/07/23 05:47:37;;;;;;;17.27;11.80;;;;;;;31.72;100.00;97586.66;5067081;28;20035;-74
2023/07/23 05:50:02;;;;;;;22.50;9.38;;;;;;;32.47;100.00;97583.50;5031650;28;20035;-74
2023/07/23 05:52:28;;;;;;;79.55;53.42;;;;;;;33.02;97.63;97586.16;5050336;28;20033;-75
2023/07/23 05:54:53;;;;;;;18.98;9.38;;;;;;;33.19;94.41;97587.22;5044086;28;20033;-74
2023/07/23 05:57:19;;;;;;;17.02;8.68;;;;;;;33.25;93.24;97581.56;5035378;28;20073;-74
2023/07/23 05:59:45;;;;;;;32.58;20.40;;;;;;;33.64;90.23;97585.66;5049706;28;20021;-74
2023/07/23 06:02:10;;;;;;;16.05;9.60;;;;;;;33.52;90.62;97575.59;5033385;28;20025;-75
2023/07/23 06:04:38;;;;;;;22.77;11.70;;;;;;;33.82;88.81;97581.06;5051472;28;20567;-75
2023/07/23 06:07:04;;;;;;;33.47;8.93;;;;;;;34.08;86.62;97575.03;5049450;28;20114;-75
2023/07/23 06:09:29;;;;;;;15.70;9.40;;;;;;;34.57;84.11;97580.03;5051503;28;20659;-74
2023/07/23 06:11:55;;;;;;;21.02;9.18;;;;;;;34.76;80.62;97567.63;5067796;28;20020;-74
2023/07/23 06:14:20;;;;;;;15.10;8.65;;;;;;;34.43;80.65;97572.19;5071235;28;20487;-75
2023/07/23 06:16:46;;;;;;;18.50;7.85;;;;;;;34.84;80.14;97560.84;5064859;28;20107;-71
2023/07/23 06:19:11;;;;;;;24.27;12.45;;;;;;;34.88;84.46;97572.31;5049256;28;20037;-72
2023/07/23 06:21:37;;;;;;;17.00;8.30;;;;;;;33.76;83.37;97566.22;5049345;28;20113;-72
2023/07/23 06:24:03;;;;;;;13.27;7.68;;;;;;;34.76;83.30;97566.81;5049633;28;20032;-72
2023/07/23 06:26:28;;;;;;;14.80;8.05;;;;;;;34.91;81.54;97569.03;5069206;28;20032;-72
2023/07/23 06:28:54;;;;;;;17.95;7.30;;;;;;;34.68;76.42;97559.69;5069532;28;20021;-72
2023/07/23 06:31:19;;;;;;;15.98;6.88;;;;;;;35.01;78.03;97563.69;5070233;28;20044;-73
2023/07/23 06:33:45;;;;;;;11.30;6.93;;;;;;;35.25;70.95;97556.91;5069272;28;20028;-73
2023/07/23 06:36:10;;;;;;;16.80;6.60;;;;;;;35.83;68.06;97551.78;5064065;28;20128;-72
2023/07/23 06:38:35;;;;;;;12.15;7.20;;;;;;;36.32;65.96;97543.59;5048805;28;20087;-71
2023/07/23 06:41:01;;;;;;;13.05;6.32;;;;;;;36.29;62.12;97544.09;5048907;28;20041;-72
2023/07/23 06:43:27;;;;;;;11.13;6.15;;;;;;;36.09;62.94;97549.38;5070253;28;20055;-72
2023/07/23 06:45:52;;;;;;;17.15;8.95;;;;;;;36.14;63.56;97546.69;5061200;28;20029;-72
2023/07/23 06:48:20;;;;;;;16.77;7.40;;;;;;;36.97;60.04;97556.66;5063457;28;20028;-73
2023/07/23 06:50:46;;;;;;;15.57;7.20;;;;;;;37.42;57.41;97554.34;5069044;28;20024;-73
2023/07/23 06:53:12;;;;;;;18.38;6.53;;;;;;;37.28;55.02;97540.00;5051630;28;20024;-73
2023/07/23 06:56:04;;;;;;;13.45;6.55;;;;;;;37.25;51.00;97542.47;5031987;28;20029;-72
2023/07/23 06:58:31;;;;;;;14.45;6.25;;;;;;;38.28;50.65;97543.81;5032168;28;20025;-71
2023/07/23 07:00:57;;;;;;;15.98;6.20;;;;;;;38.80;48.15;97541.03;5048921;28;20520;-71
2023/07/23 07:03:23;;;;;;;15.52;6.93;;;;;;;38.57;47.46;97545.13;5048704;28;20202;-72
2023/07/23 07:05:49;;;;;;;41.13;29.00;;;;;;;39.24;45.55;97541.44;5048663;28;20037;-72
2023/07/23 07:08:14;;;;;;;13.48;6.10;;;;;;;38.87;44.50;97536.84;5031842;28;20506;-72
2023/07/23 07:10:40;;;;;;;15.13;6.00;;;;;;;38.90;43.43;97539.09;5050000;28;20492;-72
2023/07/23 07:13:06;;;;;;;15.73;5.97;;;;;;;39.33;44.11;97553.75;5048960;28;20086;-72
2023/07/23 07:15:31;;;;;;;12.30;4.93;;;;;;;38.39;45.60;97549.22;5050060;28;20025;-72
2023/07/23 07:17:57;;;;;;;12.52;5.28;;;;;;;38.03;47.08;97552.06;5059718;28;20133;-74
2023/07/23 07:20:22;;;;;;;14.30;5.28;;;;;;;38.64;45.69;97553.25;5064888;28;20435;-75
2023/07/23 07:22:49;;;;;;;11.77;5.20;;;;;;;37.65;48.85;97562.41;5052290;28;20036;-75
2023/07/23 07:25:14;;;;;;;14.05;7.43;;;;;;;38.24;53.26;97573.47;5048576;28;20029;-75
2023/07/23 07:27:49;;;;;;;8.88;4.43;;;;;;;38.57;45.23;97547.91;5049856;28;20098;-76
2023/07/23 07:30:14;;;;;;;8.93;4.13;;;;;;;38.90;44.87;97558.69;5048532;28;20029;-75
2023/07/23 07:32:40;;;;;;;6.45;4.82;;;;;;;38.89;44.39;97554.19;5049656;28;20083;-75
2023/07/23 07:35:06;;;;;;;10.10;4.78;;;;;;;39.41;43.44;97553.22;5069751;28;20036;-76
2023/07/23 07:37:31;;;;;;;10.02;4.53;;;;;;;39.66;44.50;97557.97;5068466;28;20032;-76
2023/07/23 07:39:57;;;;;;;5.03;3.72;;;;;;;39.95;41.99;97553.50;5062450;28;20029;-75
2023/07/23 07:42:23;;;;;;;6.15;3.85;;;;;;;40.29;41.16;97553.72;5051431;28;20481;-75
2023/07/23 07:44:49;;;;;;;6.78;3.90;;;;;;;40.60;39.64;97546.94;5033829;28;20393;-74
2023/07/23 07:47:15;;;;;;;7.00;3.33;;;;;;;41.18;38.38;97547.19;5050773;28;20039;-75
2023/07/23 07:49:41;;;;;;;7.45;3.22;;;;;;;42.09;35.72;97536.88;5067766;28;20032;-76
2023/07/23 07:52:12;;;;;;;6.30;3.70;;;;;;;42.49;34.04;97538.44;5068536;28;20016;-75
2023/07/23 07:54:38;;;;;;;5.07;3.80;;;;;;;41.80;33.99;97535.22;5051380;28;20029;-74
2023/07/23 07:57:04;;;;;;;20.88;6.68;;;;;;;41.47;33.87;97529.28;5057625;28;20028;-75
2023/07/23 07:59:30;;;;;;;11.95;5.95;;;;;;;41.75;32.90;97533.25;5065825;28;20028;-75
2023/07/23 08:01:56;;;;;;;7.10;4.28;;;;;;;42.11;32.61;97522.53;5045691;28;20069;-75
2023/07/23 08:04:22;;;;;;;6.85;4.28;;;;;;;42.21;32.00;97519.63;5060685;28;20018;-90
2023/07/23 08:06:48;;;;;;;5.03;3.35;;;;;;;41.58;32.17;97521.63;5040144;28;20105;-75
2023/07/23 08:09:17;;;;;;;5.43;3.22;;;;;;;41.24;32.58;97523.56;5048856;28;20749;-75
2023/07/23 08:11:43;;;;;;;4.90;3.22;;;;;;;40.05;34.69;97517.88;5048360;28;20060;-83
2023/07/23 08:14:09;;;;;;;5.30;3.65;;;;;;;40.44;33.72;97525.63;5039549;28;20115;-76
2023/07/23 08:16:35;;;;;;;10.07;3.78;;;;;;;40.92;33.81;97527.66;5055542;28;20503;-75
2023/07/23 08:19:01;;;;;;;7.72;3.25;;;;;;;40.72;33.86;97541.81;5065200;28;20031;-75
2023/07/23 08:21:27;;;;;;;11.05;3.78;;;;;;;41.13;33.53;97530.38;5031644;28;20346;-75
2023/07/23 08:23:53;;;;;;;8.70;2.90;;;;;;;41.63;32.61;97532.81;5041969;28;20044;-76
2023/07/23 08:26:20;;;;;;;3.90;2.85;;;;;;;41.99;32.03;97545.44;5071234;28;20060;-75
2023/07/23 08:28:51;;;;;;;5.57;4.40;;;;;;;41.73;32.07;97534.69;5069939;28;20393;-74
2023/07/23 08:31:20;;;;;;;5.95;2.80;;;;;;;42.10;31.44;97516.06;5053342;28;20133;-74
2023/07/23 08:33:47;;;;;;;8.43;4.25;;;;;;;41.89;31.87;97527.84;5069777;28;20028;-74
2023/07/23 08:36:13;;;;;;;3.97;2.92;;;;;;;42.07;31.06;97519.47;5069396;28;20032;-74
2023/07/23 08:38:39;;;;;;;4.97;3.33;;;;;;;41.60;31.29;97517.38;5069826;28;20039;-74
2023/07/23 08:41:16;;;;;;;8.48;3.25;;;;;;;41.62;31.18;97526.34;5053230;28;20036;-75
2023/07/23 08:44:12;;;;;;;5.10;3.05;;;;;;;42.12;30.34;97522.22;5053303;28;20025;-73
2023/07/23 08:46:45;;;;;;;3.47;3.03;;;;;;;42.19;30.19;97519.09;5049956;28;20111;-74
2023/07/23 08:49:11;;;;;;;6.32;3.63;;;;;;;42.12;30.49;97518.56;5049388;28;20039;-75
2023/07/23 08:52:45;;;;;;;6.93;3.97;;;;;;;41.93;30.97;97501.63;5057048;28;20020;-75
2023/07/23 08:55:11;;;;;;;8.32;4.35;;;;;;;42.14;30.89;97522.78;4989492;28;20874;-74
2023/07/23 08:57:37;;;;;;;8.30;3.80;;;;;;;41.89;31.18;97503.38;5077255;28;20040;-73
2023/07/23 09:00:03;;;;;;;4.55;3.65;;;;;;;42.78;30.81;97515.00;5058780;28;20180;-74
2023/07/23 09:02:44;;;;;;;5.47;3.65;;;;;;;42.42;30.48;97490.13;5054173;28;20021;-78
2023/07/23 09:05:45;;;;;;;10.20;5.35;;;;;;;42.55;30.68;97511.06;5045234;28;20037;-74
2023/07/23 09:08:11;;;;;;;11.00;6.30;;;;;;;42.55;30.87;97474.47;5060444;28;20070;-75
2023/07/23 09:10:37;;;;;;;9.15;4.80;;;;;;;43.79;29.64;97502.22;5070382;28;20488;-75
2023/07/23 09:13:10;;;;;;;5.22;3.92;;;;;;;43.65;29.65;97504.97;5069095;28;20115;-75
2023/07/23 09:15:36;;;;;;;8.38;3.60;;;;;;;44.14;29.36;97505.22;5069077;28;20545;-75
2023/07/23 09:18:02;;;;;;;6.55;3.20;;;;;;;44.35;28.80;97507.66;5069006;28;20061;-75
2023/07/23 09:20:27;;;;;;;3.95;3.17;;;;;;;44.32;28.53;97511.09;5069259;28;20396;-74
2023/07/23 09:22:53;;;;;;;4.60;3.13;;;;;;;44.35;28.66;97504.81;5068884;28;20067;-75
2023/07/23 09:25:18;;;;;;;6.75;3.65;;;;;;;44.48;28.45;97515.28;5070272;28;20109;-75
2023/07/23 09:27:44;;;;;;;5.18;3.80;;;;;;;44.43;28.71;97515.38;5069042;28;20029;-74
2023/07/23 09:30:19;;;;;;;5.57;3.53;;;;;;;43.42;29.12;97514.38;5069223;28;20020;-75
2023/07/23 09:32:55;;;;;;;6.00;3.90;;;;;;;42.18;30.28;97513.78;5072544;28;20060;-75
2023/07/23 09:35:23;;;;;;;6.97;4.30;;;;;;;41.92;31.19;97516.84;5073409;28;20491;-74
2023/07/23 09:37:58;;;;;;;6.57;3.60;;;;;;;41.78;31.20;97517.84;5074026;28;20028;-74
2023/07/23 09:40:37;;;;;;;5.82;3.42;;;;;;;42.57;30.56;97517.22;5073288;28;20336;-75
2023/07/23 09:43:03;;;;;;;8.10;3.42;;;;;;;43.13;29.91;97509.72;5056199;28;20073;-74
2023/07/23 09:45:39;;;;;;;6.45;3.58;;;;;;;43.39;29.85;97515.84;5056378;28;20119;-74
2023/07/23 09:48:05;;;;;;;5.95;3.50;;;;;;;44.06;28.93;97516.34;5072981;28;20019;-74
2023/07/23 09:50:31;;;;;;;6.00;3.72;;;;;;;43.53;29.02;97507.44;5056377;28;20021;-74
2023/07/23 09:52:56;;;;;;;4.35;3.55;;;;;;;43.98;29.02;97515.09;5072699;28;20039;-75
2023/07/23 09:55:23;;;;;;;4.53;3.33;;;;;;;43.55;29.59;97513.59;5058549;28;20029;-74
2023/07/23 09:57:53;;;;;;;5.40;3.50;;;;;;;43.51;29.70;97513.38;5052774;28;20024;-74
2023/07/23 10:00:19;;;;;;;5.37;3.77;;;;;;;43.14;30.29;97502.09;5052998;28;20396;-74
2023/07/23 10:02:47;;;;;;;5.93;3.70;;;;;;;43.41;30.13;97502.25;5053210;28;20103;-74
2023/07/23 10:05:15;;;;;;;3.97;3.35;;;;;;;43.09;29.99;97505.00;5052613;28;20118;-75
2023/07/23 10:07:41;;;;;;;7.18;3.80;;;;;;;42.27;31.06;97506.38;5036285;28;20500;-75
2023/07/23 10:10:07;;;;;;;9.65;3.97;;;;;;;43.22;30.58;97509.88;5052705;28;20114;-75
2023/07/23 10:12:33;;;;;;;9.65;3.92;;;;;;;43.81;29.65;97500.75;5052537;28;20067;-75
2023/07/23 10:14:59;;;;;;;7.20;3.65;;;;;;;43.82;29.92;97508.06;5035788;28;20080;-75
2023/07/23 10:17:25;;;;;;;4.72;4.22;;;;;;;43.15;30.41;97499.00;5053933;28;20453;-75
2023/07/23 10:19:51;;;;;;;4.25;3.40;;;;;;;43.05;30.75;97501.13;5052452;28;20036;-74
2023/07/23 10:22:17;;;;;;;5.00;3.38;;;;;;;43.72;30.50;97508.22;5052248;28;20068;-73
2023/07/23 10:24:43;;;;;;;6.65;3.63;;;;;;;44.01;30.20;97500.38;5035723;28;20021;-74
2023/07/23 10:27:12;;;;;;;7.55;4.20;;;;;;;43.69;30.68;97504.03;5052116;28;20032;-73
2023/07/23 10:29:38;;;;;;;5.85;3.80;;;;;;;43.33;31.43;97510.53;5058016;28;20021;-74
2023/07/23 10:32:26;;;;;;;4.15;3.53;;;;;;;43.90;30.21;97496.06;5071814;28;20557;-75
2023/07/23 10:34:54;;;;;;;4.65;3.78;;;;;;;44.63;29.74;97503.69;5054967;28;20028;-74
2023/07/23 10:37:21;;;;;;;5.72;4.20;;;;;;;45.30;28.73;97498.25;5054911;28;20525;-75
2023/07/23 10:39:51;;;;;;;7.07;3.55;;;;;;;43.87;30.56;97495.88;5073402;28;20494;-74
2023/07/23 10:42:35;;;;;;;5.50;3.85;;;;;;;44.70;30.15;97507.75;5055189;28;20193;-74
2023/07/23 10:45:22;;;;;;;8.43;3.70;;;;;;;44.76;29.77;97500.03;5073124;28;20039;-75
2023/07/23 10:47:49;;;;;;;6.32;3.30;;;;;;;44.63;30.29;97500.88;5073239;28;20024;-74
2023/07/23 10:50:16;;;;;;;12.50;3.83;;;;;;;44.31;30.12;97506.59;5071718;28;20028;-74
2023/07/23 10:52:46;;;;;;;4.43;3.42;;;;;;;43.79;30.19;97497.41;5071942;28;20559;-74
2023/07/23 10:55:12;;;;;;;10.77;3.67;;;;;;;44.38;29.85;97492.91;5045154;28;20035;-74
2023/07/23 10:57:39;;;;;;;5.78;3.92;;;;;;;44.53;29.47;97492.56;5034912;28;20397;-73
2023/07/23 11:00:19;;;;;;;4.68;3.35;;;;;;;44.53;29.93;97504.72;5034593;28;20558;-74
2023/07/23 11:02:48;;;;;;;5.68;3.85;;;;;;;43.24;30.69;97499.13;5051507;28;20021;-74
2023/07/23 11:05:15;;;;;;;7.63;4.10;;;;;;;43.24;30.91;97495.47;5048468;28;20020;-74
2023/07/23 11:07:40;;;;;;;11.05;4.25;;;;;;;43.03;31.44;97495.81;5071637;28;20474;-74
2023/07/23 11:10:19;;;;;;;6.78;5.30;;;;;;;43.73;30.90;97498.63;5054850;28;20059;-74
2023/07/23 11:12:44;;;;;;;21.67;5.30;;;;;;;43.76;30.81;97494.34;5054711;28;20024;-75
2023/07/23 11:15:14;;;;;;;7.95;4.15;;;;;;;43.59;31.18;97492.13;5071535;28;20020;-74
2023/07/23 11:17:40;;;;;;;6.22;3.80;;;;;;;43.28;31.25;97483.31;5071017;28;20024;-74
2023/07/23 11:20:07;;;;;;;5.10;4.32;;;;;;;42.76;31.66;97491.97;5072577;28;20496;-75
2023/07/23 11:22:32;;;;;;;4.68;3.70;;;;;;;43.27;31.10;97489.22;5072135;28;20052;-74